sensor_id;sensor_type;location;lat;lon;timestamp;P1;durP1;ratioP1;P2;durP2;ratioP2
16246;SDS011;8231;50.866;7.944;2022-09-27T00:01:49;6.15;;;2.92;;
16246;SDS011;8231;50.866;7.944;2022-09-27T00:04:17;4.95;;;3.40;;
16246;SDS011;8231;50.866;7.944;2022-09-27T00:06:45;4.95;;;2.90;;
16246;SDS011;8231;50.866;7.944;2022-09-27T00:09:15;4.68;;;2.67;;
16246;SDS011;8231;50.866;7.944;2022-09-27T00:11:43;5.70;;;3.10;;
16246;SDS011;8231;50.866;7.944;2022-09-27T00:14:13;3.00;;;2.75;;
16246;SDS011;8231;50.866;7.944;2022-09-27T00:16:43;4.32;;;2.42;;
16246;SDS011;8231;50.866;7.944;2022-09-27T00:19:13;3.75;;;2.42;;
16246;SDS011;8231;50.866;7.944;2022-09-27T00:21:44;5.00;;;2.20;;
16246;SDS011;8231;50.866;7.944;2022-09-27T00:24:13;5.30;;;2.72;;
16246;SDS011;8231;50.866;7.944;2022-09-27T00:26:43;4.85;;;2.75;;
16246;SDS011;8231;50.866;7.944;2022-09-27T00:29:12;4.63;;;2.20;;
16246;SDS011;8231;50.866;7.944;2022-09-27T00:31:41;2.42;;;2.05;;
16246;SDS011;8231;50.866;7.944;2022-09-27T00:34:12;2.88;;;2.05;;
16246;SDS011;8231;50.866;7.944;2022-09-27T00:36:45;4.70;;;1.88;;
16246;SDS011;8231;50.866;7.944;2022-09-27T00:39:14;2.97;;;2.40;;
16246;SDS011;8231;50.866;7.944;2022-09-27T00:41:43;3.72;;;2.20;;
16246;SDS011;8231;50.866;7.944;2022-09-27T00:47:18;5.60;;;2.47;;
16246;SDS011;8231;50.866;7.944;2022-09-27T00:49:52;4.28;;;2.70;;
16246;SDS011;8231;50.866;7.944;2022-09-27T00:52:24;3.03;;;1.95;;
16246;SDS011;8231;50.866;7.944;2022-09-27T00:54:58;7.50;;;2.58;;
16246;SDS011;8231;50.866;7.944;2022-09-27T00:57:29;3.72;;;2.53;;
16246;SDS011;8231;50.866;7.944;2022-09-27T00:59:58;2.75;;;1.63;;
16246;SDS011;8231;50.866;7.944;2022-09-27T01:02:29;3.25;;;2.40;;
16246;SDS011;8231;50.866;7.944;2022-09-27T01:04:58;2.05;;;1.90;;
16246;SDS011;8231;50.866;7.944;2022-09-27T01:07:27;4.50;;;2.50;;
16246;SDS011;8231;50.866;7.944;2022-09-27T01:09:55;4.28;;;2.05;;
16246;SDS011;8231;50.866;7.944;2022-09-27T01:12:27;6.65;;;2.33;;
16246;SDS011;8231;50.866;7.944;2022-09-27T01:15:06;2.08;;;1.88;;
16246;SDS011;8231;50.866;7.944;2022-09-27T01:17:47;2.30;;;2.10;;
16246;SDS011;8231;50.866;7.944;2022-09-27T01:20:29;2.20;;;2.00;;
16246;SDS011;8231;50.866;7.944;2022-09-27T01:23:26;3.20;;;2.08;;
16246;SDS011;8231;50.866;7.944;2022-09-27T01:26:15;5.00;;;2.17;;
16246;SDS011;8231;50.866;7.944;2022-09-27T01:28:57;2.13;;;1.92;;
16246;SDS011;8231;50.866;7.944;2022-09-27T01:31:37;3.20;;;2.35;;
16246;SDS011;8231;50.866;7.944;2022-09-27T01:34:10;3.38;;;2.55;;
16246;SDS011;8231;50.866;7.944;2022-09-27T01:36:50;2.72;;;2.10;;
16246;SDS011;8231;50.866;7.944;2022-09-27T01:39:27;3.40;;;1.90;;
16246;SDS011;8231;50.866;7.944;2022-09-27T01:42:25;2.22;;;2.03;;
16246;SDS011;8231;50.866;7.944;2022-09-27T01:45:05;2.42;;;2.22;;
16246;SDS011;8231;50.866;7.944;2022-09-27T01:48:02;1.85;;;1.58;;
16246;SDS011;8231;50.866;7.944;2022-09-27T01:50:49;2.88;;;2.10;;
16246;SDS011;8231;50.866;7.944;2022-09-27T01:53:22;2.17;;;1.60;;
16246;SDS011;8231;50.866;7.944;2022-09-27T01:56:13;5.35;;;2.15;;
16246;SDS011;8231;50.866;7.944;2022-09-27T01:58:53;1.67;;;1.58;;
16246;SDS011;8231;50.866;7.944;2022-09-27T02:01:27;2.83;;;1.40;;
16246;SDS011;8231;50.866;7.944;2022-09-27T02:04:00;1.42;;;1.33;;
16246;SDS011;8231;50.866;7.944;2022-09-27T02:06:30;2.20;;;1.88;;
16246;SDS011;8231;50.866;7.944;2022-09-27T02:09:24;2.35;;;2.10;;
16246;SDS011;8231;50.866;7.944;2022-09-27T02:12:18;3.47;;;2.33;;
16246;SDS011;8231;50.866;7.944;2022-09-27T02:14:52;2.50;;;2.30;;
16246;SDS011;8231;50.866;7.944;2022-09-27T02:17:24;2.70;;;2.30;;
16246;SDS011;8231;50.866;7.944;2022-09-27T02:20:05;3.22;;;2.20;;
16246;SDS011;8231;50.866;7.944;2022-09-27T02:22:46;3.22;;;2.60;;
16246;SDS011;8231;50.866;7.944;2022-09-27T02:25:19;3.22;;;2.35;;
16246;SDS011;8231;50.866;7.944;2022-09-27T02:27:56;4.15;;;2.08;;
16246;SDS011;8231;50.866;7.944;2022-09-27T02:33:25;2.97;;;2.20;;
16246;SDS011;8231;50.866;7.944;2022-09-27T02:35:57;4.10;;;2.72;;
16246;SDS011;8231;50.866;7.944;2022-09-27T02:38:26;2.40;;;2.20;;
16246;SDS011;8231;50.866;7.944;2022-09-27T02:40:55;2.55;;;2.35;;
16246;SDS011;8231;50.866;7.944;2022-09-27T02:43:23;4.57;;;2.63;;
16246;SDS011;8231;50.866;7.944;2022-09-27T02:45:59;4.00;;;2.65;;
16246;SDS011;8231;50.866;7.944;2022-09-27T02:48:43;3.30;;;3.00;;
16246;SDS011;8231;50.866;7.944;2022-09-27T02:51:25;3.10;;;2.78;;
16246;SDS011;8231;50.866;7.944;2022-09-27T02:54:03;4.05;;;2.95;;
16246;SDS011;8231;50.866;7.944;2022-09-27T02:57:14;3.28;;;2.92;;
16246;SDS011;8231;50.866;7.944;2022-09-27T03:00:13;3.72;;;3.28;;
16246;SDS011;8231;50.866;7.944;2022-09-27T03:02:57;5.43;;;2.88;;
16246;SDS011;8231;50.866;7.944;2022-09-27T03:05:37;4.57;;;3.30;;
16246;SDS011;8231;50.866;7.944;2022-09-27T03:08:11;8.73;;;4.35;;
16246;SDS011;8231;50.866;7.944;2022-09-27T03:10:40;4.07;;;3.30;;
16246;SDS011;8231;50.866;7.944;2022-09-27T03:13:08;5.00;;;2.75;;
16246;SDS011;8231;50.866;7.944;2022-09-27T03:15:36;4.82;;;2.70;;
16246;SDS011;8231;50.866;7.944;2022-09-27T03:18:04;2.50;;;2.30;;
16246;SDS011;8231;50.866;7.944;2022-09-27T03:20:51;4.65;;;2.70;;
16246;SDS011;8231;50.866;7.944;2022-09-27T03:23:22;4.35;;;2.70;;
16246;SDS011;8231;50.866;7.944;2022-09-27T03:25:50;7.13;;;3.17;;
16246;SDS011;8231;50.866;7.944;2022-09-27T03:28:19;3.90;;;3.20;;
16246;SDS011;8231;50.866;7.944;2022-09-27T03:30:47;4.72;;;3.10;;
16246;SDS011;8231;50.866;7.944;2022-09-27T03:33:35;4.00;;;3.42;;
16246;SDS011;8231;50.866;7.944;2022-09-27T03:36:10;3.97;;;3.40;;
16246;SDS011;8231;50.866;7.944;2022-09-27T03:38:39;5.00;;;3.28;;
16246;SDS011;8231;50.866;7.944;2022-09-27T03:41:11;5.03;;;3.28;;
16246;SDS011;8231;50.866;7.944;2022-09-27T03:43:39;4.10;;;3.30;;
16246;SDS011;8231;50.866;7.944;2022-09-27T03:46:07;4.50;;;3.70;;
16246;SDS011;8231;50.866;7.944;2022-09-27T03:48:35;3.88;;;3.17;;
16246;SDS011;8231;50.866;7.944;2022-09-27T03:51:03;3.95;;;3.25;;
16246;SDS011;8231;50.866;7.944;2022-09-27T03:53:32;5.28;;;3.47;;
16246;SDS011;8231;50.866;7.944;2022-09-27T03:56:02;5.60;;;3.35;;
16246;SDS011;8231;50.866;7.944;2022-09-27T03:58:30;4.07;;;3.58;;
16246;SDS011;8231;50.866;7.944;2022-09-27T04:00:58;4.38;;;3.30;;
16246;SDS011;8231;50.866;7.944;2022-09-27T04:03:29;3.60;;;2.85;;
16246;SDS011;8231;50.866;7.944;2022-09-27T04:06:23;6.25;;;3.17;;
16246;SDS011;8231;50.866;7.944;2022-09-27T04:08:52;3.40;;;2.80;;
16246;SDS011;8231;50.866;7.944;2022-09-27T04:11:25;2.83;;;2.42;;
16246;SDS011;8231;50.866;7.944;2022-09-27T04:13:53;4.15;;;2.72;;
16246;SDS011;8231;50.866;7.944;2022-09-27T04:16:22;5.00;;;2.80;;
16246;SDS011;8231;50.866;7.944;2022-09-27T04:19:11;4.10;;;2.55;;
16246;SDS011;8231;50.866;7.944;2022-09-27T04:21:39;4.00;;;2.55;;
16246;SDS011;8231;50.866;7.944;2022-09-27T04:24:09;3.45;;;2.40;;
16246;SDS011;8231;50.866;7.944;2022-09-27T04:26:43;3.65;;;2.33;;
16246;SDS011;8231;50.866;7.944;2022-09-27T04:29:12;4.25;;;3.45;;
16246;SDS011;8231;50.866;7.944;2022-09-27T04:31:47;2.75;;;2.35;;
16246;SDS011;8231;50.866;7.944;2022-09-27T04:34:34;3.78;;;2.67;;
16246;SDS011;8231;50.866;7.944;2022-09-27T04:37:22;5.18;;;2.97;;
16246;SDS011;8231;50.866;7.944;2022-09-27T04:39:54;6.70;;;2.70;;
16246;SDS011;8231;50.866;7.944;2022-09-27T04:42:24;3.45;;;2.70;;
16246;SDS011;8231;50.866;7.944;2022-09-27T04:44:54;7.88;;;2.25;;
16246;SDS011;8231;50.866;7.944;2022-09-27T04:47:22;5.88;;;3.08;;
16246;SDS011;8231;50.866;7.944;2022-09-27T04:49:50;4.05;;;3.22;;
16246;SDS011;8231;50.866;7.944;2022-09-27T04:52:18;3.22;;;2.90;;
16246;SDS011;8231;50.866;7.944;2022-09-27T04:54:46;6.53;;;3.22;;
16246;SDS011;8231;50.866;7.944;2022-09-27T04:57:15;3.42;;;2.63;;
16246;SDS011;8231;50.866;7.944;2022-09-27T04:59:45;2.90;;;2.65;;
16246;SDS011;8231;50.866;7.944;2022-09-27T05:02:13;6.10;;;3.28;;
16246;SDS011;8231;50.866;7.944;2022-09-27T05:05:04;12.50;;;3.35;;
16246;SDS011;8231;50.866;7.944;2022-09-27T05:07:36;4.30;;;3.00;;
16246;SDS011;8231;50.866;7.944;2022-09-27T05:10:10;3.55;;;2.75;;
16246;SDS011;8231;50.866;7.944;2022-09-27T05:12:38;3.97;;;2.78;;
16246;SDS011;8231;50.866;7.944;2022-09-27T05:15:08;3.88;;;2.53;;
16246;SDS011;8231;50.866;7.944;2022-09-27T05:18:09;4.32;;;3.10;;
16246;SDS011;8231;50.866;7.944;2022-09-27T05:20:55;3.88;;;3.55;;
16246;SDS011;8231;50.866;7.944;2022-09-27T05:23:30;4.45;;;2.80;;
16246;SDS011;8231;50.866;7.944;2022-09-27T05:26:01;4.82;;;3.22;;
16246;SDS011;8231;50.866;7.944;2022-09-27T05:28:30;4.57;;;3.55;;
16246;SDS011;8231;50.866;7.944;2022-09-27T05:31:02;4.53;;;3.42;;
16246;SDS011;8231;50.866;7.944;2022-09-27T05:33:30;4.68;;;3.70;;
16246;SDS011;8231;50.866;7.944;2022-09-27T05:36:18;7.38;;;4.15;;
16246;SDS011;8231;50.866;7.944;2022-09-27T05:38:46;7.25;;;4.30;;
16246;SDS011;8231;50.866;7.944;2022-09-27T05:41:15;5.03;;;4.45;;
16246;SDS011;8231;50.866;7.944;2022-09-27T05:43:44;5.22;;;4.70;;
16246;SDS011;8231;50.866;7.944;2022-09-27T05:46:14;5.68;;;4.97;;
16246;SDS011;8231;50.866;7.944;2022-09-27T05:48:43;4.97;;;4.47;;
16246;SDS011;8231;50.866;7.944;2022-09-27T05:51:11;7.32;;;4.80;;
16246;SDS011;8231;50.866;7.944;2022-09-27T05:53:39;6.53;;;5.13;;
16246;SDS011;8231;50.866;7.944;2022-09-27T05:56:16;7.95;;;5.13;;
16246;SDS011;8231;50.866;7.944;2022-09-27T05:59:02;6.53;;;4.70;;
16246;SDS011;8231;50.866;7.944;2022-09-27T06:01:52;6.13;;;4.43;;
16246;SDS011;8231;50.866;7.944;2022-09-27T06:04:40;7.90;;;4.55;;
16246;SDS011;8231;50.866;7.944;2022-09-27T06:07:32;8.75;;;5.85;;
16246;SDS011;8231;50.866;7.944;2022-09-27T06:10:04;7.50;;;5.22;;
16246;SDS011;8231;50.866;7.944;2022-09-27T06:12:33;7.28;;;4.93;;
16246;SDS011;8231;50.866;7.944;2022-09-27T06:15:05;7.75;;;6.10;;
16246;SDS011;8231;50.866;7.944;2022-09-27T06:17:39;9.02;;;6.30;;
16246;SDS011;8231;50.866;7.944;2022-09-27T06:20:13;8.13;;;5.25;;
16246;SDS011;8231;50.866;7.944;2022-09-27T06:22:44;9.68;;;6.22;;
16246;SDS011;8231;50.866;7.944;2022-09-27T06:25:13;7.10;;;5.28;;
16246;SDS011;8231;50.866;7.944;2022-09-27T06:27:58;7.28;;;6.55;;
16246;SDS011;8231;50.866;7.944;2022-09-27T06:30:27;8.23;;;6.20;;
16246;SDS011;8231;50.866;7.944;2022-09-27T06:32:59;10.07;;;5.78;;
16246;SDS011;8231;50.866;7.944;2022-09-27T06:35:31;7.13;;;5.90;;
16246;SDS011;8231;50.866;7.944;2022-09-27T06:38:01;10.90;;;6.50;;
16246;SDS011;8231;50.866;7.944;2022-09-27T06:40:30;9.32;;;6.57;;
16246;SDS011;8231;50.866;7.944;2022-09-27T06:43:19;7.85;;;5.85;;
16246;SDS011;8231;50.866;7.944;2022-09-27T06:46:06;6.65;;;5.97;;
16246;SDS011;8231;50.866;7.944;2022-09-27T06:48:50;12.18;;;7.25;;
16246;SDS011;8231;50.866;7.944;2022-09-27T06:51:19;9.25;;;6.53;;
16246;SDS011;8231;50.866;7.944;2022-09-27T06:53:48;9.27;;;6.55;;
16246;SDS011;8231;50.866;7.944;2022-09-27T06:56:16;9.57;;;7.40;;
16246;SDS011;8231;50.866;7.944;2022-09-27T06:58:49;9.20;;;7.00;;
16246;SDS011;8231;50.866;7.944;2022-09-27T07:01:40;9.82;;;7.30;;
16246;SDS011;8231;50.866;7.944;2022-09-27T07:04:29;12.35;;;6.63;;
16246;SDS011;8231;50.866;7.944;2022-09-27T07:07:12;7.28;;;5.63;;
16246;SDS011;8231;50.866;7.944;2022-09-27T07:09:44;6.18;;;5.03;;
16246;SDS011;8231;50.866;7.944;2022-09-27T07:12:12;8.73;;;5.22;;
16246;SDS011;8231;50.866;7.944;2022-09-27T07:14:41;5.78;;;5.18;;
16246;SDS011;8231;50.866;7.944;2022-09-27T07:17:12;8.07;;;5.55;;
16246;SDS011;8231;50.866;7.944;2022-09-27T07:19:44;8.82;;;5.65;;
16246;SDS011;8231;50.866;7.944;2022-09-27T07:22:13;7.93;;;6.13;;
16246;SDS011;8231;50.866;7.944;2022-09-27T07:24:44;6.50;;;5.88;;
16246;SDS011;8231;50.866;7.944;2022-09-27T07:27:13;6.35;;;5.75;;
16246;SDS011;8231;50.866;7.944;2022-09-27T07:29:44;13.55;;;7.25;;
16246;SDS011;8231;50.866;7.944;2022-09-27T07:32:12;8.90;;;4.60;;
16246;SDS011;8231;50.866;7.944;2022-09-27T07:34:40;8.30;;;5.05;;
16246;SDS011;8231;50.866;7.944;2022-09-27T07:37:11;6.22;;;5.63;;
16246;SDS011;8231;50.866;7.944;2022-09-27T07:39:39;5.38;;;4.85;;
16246;SDS011;8231;50.866;7.944;2022-09-27T07:42:07;8.40;;;6.28;;
16246;SDS011;8231;50.866;7.944;2022-09-27T07:44:40;6.93;;;5.40;;
16246;SDS011;8231;50.866;7.944;2022-09-27T07:47:31;5.63;;;4.95;;
16246;SDS011;8231;50.866;7.944;2022-09-27T07:50:05;7.93;;;5.78;;
16246;SDS011;8231;50.866;7.944;2022-09-27T07:52:45;6.97;;;6.15;;
16246;SDS011;8231;50.866;7.944;2022-09-27T07:55:31;7.65;;;5.75;;
16246;SDS011;8231;50.866;7.944;2022-09-27T07:58:09;6.43;;;5.20;;
16246;SDS011;8231;50.866;7.944;2022-09-27T08:00:39;6.20;;;5.03;;
16246;SDS011;8231;50.866;7.944;2022-09-27T08:03:09;5.93;;;4.50;;
16246;SDS011;8231;50.866;7.944;2022-09-27T08:05:41;4.90;;;4.40;;
16246;SDS011;8231;50.866;7.944;2022-09-27T08:08:11;5.53;;;3.85;;
16246;SDS011;8231;50.866;7.944;2022-09-27T08:10:40;5.97;;;4.28;;
16246;SDS011;8231;50.866;7.944;2022-09-27T08:13:10;4.18;;;3.80;;
16246;SDS011;8231;50.866;7.944;2022-09-27T08:15:39;7.45;;;4.32;;
16246;SDS011;8231;50.866;7.944;2022-09-27T08:18:07;5.25;;;3.80;;
16246;SDS011;8231;50.866;7.944;2022-09-27T08:21:08;6.75;;;4.05;;
16246;SDS011;8231;50.866;7.944;2022-09-27T08:24:00;3.33;;;3.00;;
16246;SDS011;8231;50.866;7.944;2022-09-27T08:26:35;3.33;;;3.03;;
16246;SDS011;8231;50.866;7.944;2022-09-27T08:29:09;5.90;;;3.95;;
16246;SDS011;8231;50.866;7.944;2022-09-27T08:31:41;3.40;;;3.03;;
16246;SDS011;8231;50.866;7.944;2022-09-27T08:34:10;3.30;;;3.00;;
16246;SDS011;8231;50.866;7.944;2022-09-27T08:36:38;3.58;;;2.92;;
16246;SDS011;8231;50.866;7.944;2022-09-27T08:39:08;4.25;;;2.33;;
16246;SDS011;8231;50.866;7.944;2022-09-27T08:41:45;2.42;;;2.22;;
16246;SDS011;8231;50.866;7.944;2022-09-27T08:44:20;2.80;;;2.05;;
16246;SDS011;8231;50.866;7.944;2022-09-27T08:47:10;2.03;;;1.85;;
16246;SDS011;8231;50.866;7.944;2022-09-27T08:49:44;2.58;;;1.80;;
16246;SDS011;8231;50.866;7.944;2022-09-27T08:52:18;5.55;;;2.13;;
16246;SDS011;8231;50.866;7.944;2022-09-27T08:54:51;3.67;;;1.70;;
16246;SDS011;8231;50.866;7.944;2022-09-27T08:57:19;2.25;;;2.05;;
16246;SDS011;8231;50.866;7.944;2022-09-27T08:59:53;2.97;;;1.88;;
16246;SDS011;8231;50.866;7.944;2022-09-27T09:02:28;1.45;;;1.35;;
16246;SDS011;8231;50.866;7.944;2022-09-27T09:04:57;3.42;;;1.88;;
16246;SDS011;8231;50.866;7.944;2022-09-27T09:07:34;1.20;;;1.10;;
16246;SDS011;8231;50.866;7.944;2022-09-27T09:10:19;1.70;;;1.60;;
16246;SDS011;8231;50.866;7.944;2022-09-27T09:13:17;2.38;;;2.15;;
16246;SDS011;8231;50.866;7.944;2022-09-27T09:16:02;1.45;;;1.35;;
16246;SDS011;8231;50.866;7.944;2022-09-27T09:18:45;2.10;;;2.00;;
16246;SDS011;8231;50.866;7.944;2022-09-27T09:21:42;2.47;;;1.92;;
16246;SDS011;8231;50.866;7.944;2022-09-27T09:24:30;2.42;;;2.00;;
16246;SDS011;8231;50.866;7.944;2022-09-27T09:27:12;2.30;;;2.10;;
16246;SDS011;8231;50.866;7.944;2022-09-27T09:29:53;2.80;;;2.08;;
16246;SDS011;8231;50.866;7.944;2022-09-27T09:32:37;2.10;;;2.00;;
16246;SDS011;8231;50.866;7.944;2022-09-27T09:35:16;3.38;;;2.15;;
16246;SDS011;8231;50.866;7.944;2022-09-27T09:37:48;4.63;;;2.28;;
16246;SDS011;8231;50.866;7.944;2022-09-27T09:40:20;1.90;;;1.80;;
16246;SDS011;8231;50.866;7.944;2022-09-27T09:42:56;1.92;;;1.75;;
16246;SDS011;8231;50.866;7.944;2022-09-27T09:45:28;2.00;;;1.83;;
16246;SDS011;8231;50.866;7.944;2022-09-27T09:48:03;1.58;;;1.48;;
16246;SDS011;8231;50.866;7.944;2022-09-27T09:50:34;1.95;;;1.80;;
16246;SDS011;8231;50.866;7.944;2022-09-27T09:53:10;1.48;;;1.38;;
16246;SDS011;8231;50.866;7.944;2022-09-27T09:55:41;2.38;;;1.60;;
16246;SDS011;8231;50.866;7.944;2022-09-27T09:58:19;1.52;;;1.42;;
16246;SDS011;8231;50.866;7.944;2022-09-27T10:00:54;2.20;;;1.48;;
16246;SDS011;8231;50.866;7.944;2022-09-27T10:03:27;2.63;;;1.20;;
16246;SDS011;8231;50.866;7.944;2022-09-27T10:05:55;2.10;;;1.10;;
16246;SDS011;8231;50.866;7.944;2022-09-27T10:08:23;1.13;;;1.02;;
16246;SDS011;8231;50.866;7.944;2022-09-27T10:11:09;2.17;;;1.30;;
16246;SDS011;8231;50.866;7.944;2022-09-27T10:13:51;1.45;;;1.00;;
16246;SDS011;8231;50.866;7.944;2022-09-27T10:16:21;1.52;;;0.75;;
16246;SDS011;8231;50.866;7.944;2022-09-27T10:18:50;1.10;;;1.00;;
16246;SDS011;8231;50.866;7.944;2022-09-27T10:21:27;1.40;;;0.90;;
16246;SDS011;8231;50.866;7.944;2022-09-27T10:24:00;1.80;;;1.20;;
16246;SDS011;8231;50.866;7.944;2022-09-27T10:26:49;1.02;;;0.80;;
16246;SDS011;8231;50.866;7.944;2022-09-27T10:29:22;1.02;;;0.80;;
16246;SDS011;8231;50.866;7.944;2022-09-27T10:32:03;3.83;;;1.00;;
16246;SDS011;8231;50.866;7.944;2022-09-27T10:34:37;1.33;;;0.90;;
16246;SDS011;8231;50.866;7.944;2022-09-27T10:37:14;4.03;;;1.00;;
16246;SDS011;8231;50.866;7.944;2022-09-27T10:40:00;1.77;;;0.60;;
16246;SDS011;8231;50.866;7.944;2022-09-27T10:42:33;1.55;;;0.45;;
16246;SDS011;8231;50.866;7.944;2022-09-27T10:45:27;2.92;;;0.68;;
16246;SDS011;8231;50.866;7.944;2022-09-27T10:48:04;1.70;;;0.70;;
16246;SDS011;8231;50.866;7.944;2022-09-27T10:50:39;1.38;;;0.60;;
16246;SDS011;8231;50.866;7.944;2022-09-27T10:53:37;3.20;;;1.00;;
16246;SDS011;8231;50.866;7.944;2022-09-27T10:56:22;0.95;;;0.50;;
16246;SDS011;8231;50.866;7.944;2022-09-27T10:58:53;1.95;;;0.65;;
16246;SDS011;8231;50.866;7.944;2022-09-27T11:01:25;3.63;;;1.00;;
16246;SDS011;8231;50.866;7.944;2022-09-27T11:04:03;2.30;;;0.73;;
16246;SDS011;8231;50.866;7.944;2022-09-27T11:06:33;1.45;;;0.65;;
16246;SDS011;8231;50.866;7.944;2022-09-27T11:09:10;3.25;;;1.17;;
16246;SDS011;8231;50.866;7.944;2022-09-27T11:11:47;1.95;;;0.85;;
16246;SDS011;8231;50.866;7.944;2022-09-27T11:14:17;2.40;;;0.60;;
16246;SDS011;8231;50.866;7.944;2022-09-27T11:16:49;1.30;;;0.77;;
16246;SDS011;8231;50.866;7.944;2022-09-27T11:19:57;0.73;;;0.52;;
16246;SDS011;8231;50.866;7.944;2022-09-27T11:23:03;2.67;;;0.80;;
16246;SDS011;8231;50.866;7.944;2022-09-27T11:25:55;1.00;;;0.90;;
16246;SDS011;8231;50.866;7.944;2022-09-27T11:28:37;1.50;;;1.00;;
16246;SDS011;8231;50.866;7.944;2022-09-27T11:31:25;1.50;;;0.57;;
16246;SDS011;8231;50.866;7.944;2022-09-27T11:34:13;2.20;;;1.00;;
16246;SDS011;8231;50.866;7.944;2022-09-27T11:36:58;1.05;;;0.60;;
16246;SDS011;8231;50.866;7.944;2022-09-27T11:39:43;0.95;;;0.70;;
16246;SDS011;8231;50.866;7.944;2022-09-27T11:42:31;16.13;;;11.00;;
16246;SDS011;8231;50.866;7.944;2022-09-27T11:45:19;0.85;;;0.85;;
16246;SDS011;8231;50.866;7.944;2022-09-27T11:48:22;1.48;;;1.05;;
16246;SDS011;8231;50.866;7.944;2022-09-27T11:51:13;2.80;;;0.93;;
16246;SDS011;8231;50.866;7.944;2022-09-27T11:53:56;1.83;;;1.20;;
16246;SDS011;8231;50.866;7.944;2022-09-27T11:56:37;1.77;;;0.85;;
16246;SDS011;8231;50.866;7.944;2022-09-27T11:59:20;1.17;;;0.77;;
16246;SDS011;8231;50.866;7.944;2022-09-27T12:02:02;1.90;;;1.00;;
16246;SDS011;8231;50.866;7.944;2022-09-27T12:04:45;3.40;;;1.00;;
16246;SDS011;8231;50.866;7.944;2022-09-27T12:07:25;1.52;;;1.05;;
16246;SDS011;8231;50.866;7.944;2022-09-27T12:10:08;2.42;;;1.20;;
16246;SDS011;8231;50.866;7.944;2022-09-27T12:12:40;4.05;;;1.20;;
16246;SDS011;8231;50.866;7.944;2022-09-27T12:15:13;1.52;;;1.13;;
16246;SDS011;8231;50.866;7.944;2022-09-27T12:17:44;1.85;;;1.27;;
16246;SDS011;8231;50.866;7.944;2022-09-27T12:20:16;1.40;;;1.30;;
16246;SDS011;8231;50.866;7.944;2022-09-27T12:22:51;2.33;;;1.30;;
16246;SDS011;8231;50.866;7.944;2022-09-27T12:25:39;4.30;;;1.67;;
16246;SDS011;8231;50.866;7.944;2022-09-27T12:28:17;2.80;;;1.40;;
16246;SDS011;8231;50.866;7.944;2022-09-27T12:30:55;2.42;;;2.22;;
16246;SDS011;8231;50.866;7.944;2022-09-27T12:33:52;5.15;;;2.25;;
16246;SDS011;8231;50.866;7.944;2022-09-27T12:36:42;3.45;;;2.45;;
16246;SDS011;8231;50.866;7.944;2022-09-27T12:39:16;4.97;;;2.00;;
16246;SDS011;8231;50.866;7.944;2022-09-27T12:41:55;2.10;;;1.90;;
16246;SDS011;8231;50.866;7.944;2022-09-27T12:44:41;1.58;;;1.48;;
16246;SDS011;8231;50.866;7.944;2022-09-27T12:47:39;1.67;;;1.58;;
16246;SDS011;8231;50.866;7.944;2022-09-27T12:50:21;2.80;;;1.50;;
16246;SDS011;8231;50.866;7.944;2022-09-27T12:52:59;3.28;;;1.65;;
16246;SDS011;8231;50.866;7.944;2022-09-27T12:55:40;2.90;;;2.30;;
16246;SDS011;8231;50.866;7.944;2022-09-27T12:58:25;2.65;;;1.90;;
16246;SDS011;8231;50.866;7.944;2022-09-27T13:01:09;3.60;;;1.80;;
16246;SDS011;8231;50.866;7.944;2022-09-27T13:03:50;3.80;;;2.10;;
16246;SDS011;8231;50.866;7.944;2022-09-27T13:06:52;3.28;;;2.20;;
16246;SDS011;8231;50.866;7.944;2022-09-27T13:09:47;3.28;;;1.85;;
16246;SDS011;8231;50.866;7.944;2022-09-27T13:12:35;3.80;;;1.60;;
16246;SDS011;8231;50.866;7.944;2022-09-27T13:15:11;3.38;;;1.70;;
16246;SDS011;8231;50.866;7.944;2022-09-27T13:17:52;1.55;;;1.45;;
16246;SDS011;8231;50.866;7.944;2022-09-27T13:20:35;8.57;;;3.60;;
16246;SDS011;8231;50.866;7.944;2022-09-27T13:26:42;3.22;;;1.40;;
16246;SDS011;8231;50.866;7.944;2022-09-27T13:29:24;3.15;;;1.73;;
16246;SDS011;8231;50.866;7.944;2022-09-27T13:32:16;3.83;;;1.60;;
16246;SDS011;8231;50.866;7.944;2022-09-27T13:35:10;4.47;;;3.13;;
16246;SDS011;8231;50.866;7.944;2022-09-27T13:37:51;1.63;;;1.10;;
16246;SDS011;8231;50.866;7.944;2022-09-27T13:40:29;2.55;;;1.98;;
16246;SDS011;8231;50.866;7.944;2022-09-27T13:43:17;1.65;;;1.55;;
16246;SDS011;8231;50.866;7.944;2022-09-27T13:46:15;3.85;;;1.48;;
16246;SDS011;8231;50.866;7.944;2022-09-27T13:48:49;1.80;;;1.70;;
16246;SDS011;8231;50.866;7.944;2022-09-27T13:51:27;2.88;;;1.67;;
16246;SDS011;8231;50.866;7.944;2022-09-27T13:54:03;2.78;;;1.88;;
16246;SDS011;8231;50.866;7.944;2022-09-27T13:59:23;5.05;;;1.80;;
16246;SDS011;8231;50.866;7.944;2022-09-27T14:02:35;3.45;;;1.50;;
16246;SDS011;8231;50.866;7.944;2022-09-27T14:05:08;1.80;;;1.65;;
16246;SDS011;8231;50.866;7.944;2022-09-27T14:07:41;4.65;;;4.20;;
16246;SDS011;8231;50.866;7.944;2022-09-27T14:10:14;1.50;;;1.40;;
16246;SDS011;8231;50.866;7.944;2022-09-27T14:12:46;12.93;;;11.38;;
16246;SDS011;8231;50.866;7.944;2022-09-27T14:15:16;1.95;;;1.50;;
16246;SDS011;8231;50.866;7.944;2022-09-27T14:17:48;3.08;;;1.42;;
16246;SDS011;8231;50.866;7.944;2022-09-27T14:20:33;1.65;;;1.27;;
16246;SDS011;8231;50.866;7.944;2022-09-27T14:23:11;2.47;;;1.10;;
16246;SDS011;8231;50.866;7.944;2022-09-27T14:25:44;1.17;;;1.10;;
16246;SDS011;8231;50.866;7.944;2022-09-27T14:28:20;3.92;;;1.25;;
16246;SDS011;8231;50.866;7.944;2022-09-27T14:31:04;0.98;;;0.90;;
16246;SDS011;8231;50.866;7.944;2022-09-27T14:33:49;1.50;;;1.40;;
16246;SDS011;8231;50.866;7.944;2022-09-27T14:36:22;1.52;;;1.40;;
16246;SDS011;8231;50.866;7.944;2022-09-27T14:39:11;1.60;;;1.50;;
16246;SDS011;8231;50.866;7.944;2022-09-27T14:41:49;1.77;;;1.67;;
16246;SDS011;8231;50.866;7.944;2022-09-27T14:44:18;2.53;;;1.55;;
16246;SDS011;8231;50.866;7.944;2022-09-27T14:47:06;7.65;;;2.05;;
16246;SDS011;8231;50.866;7.944;2022-09-27T14:49:38;1.42;;;1.30;;
16246;SDS011;8231;50.866;7.944;2022-09-27T14:52:17;2.15;;;1.50;;
16246;SDS011;8231;50.866;7.944;2022-09-27T14:54:56;3.00;;;2.70;;
16246;SDS011;8231;50.866;7.944;2022-09-27T14:57:27;5.95;;;4.40;;
16246;SDS011;8231;50.866;7.944;2022-09-27T14:59:59;3.00;;;2.13;;
16246;SDS011;8231;50.866;7.944;2022-09-27T15:02:38;4.22;;;3.17;;
16246;SDS011;8231;50.866;7.944;2022-09-27T15:05:13;4.40;;;3.22;;
16246;SDS011;8231;50.866;7.944;2022-09-27T15:07:43;5.25;;;3.10;;
16246;SDS011;8231;50.866;7.944;2022-09-27T15:10:13;4.45;;;2.83;;
16246;SDS011;8231;50.866;7.944;2022-09-27T15:12:43;2.08;;;1.90;;
16246;SDS011;8231;50.866;7.944;2022-09-27T15:15:15;3.60;;;2.90;;
16246;SDS011;8231;50.866;7.944;2022-09-27T15:17:47;4.97;;;4.22;;
16246;SDS011;8231;50.866;7.944;2022-09-27T15:20:21;3.38;;;1.50;;
16246;SDS011;8231;50.866;7.944;2022-09-27T15:22:59;2.08;;;1.98;;
16246;SDS011;8231;50.866;7.944;2022-09-27T15:25:29;3.65;;;1.83;;
16246;SDS011;8231;50.866;7.944;2022-09-27T15:28:02;2.30;;;1.60;;
16246;SDS011;8231;50.866;7.944;2022-09-27T15:30:35;2.65;;;1.73;;
16246;SDS011;8231;50.866;7.944;2022-09-27T15:33:05;2.42;;;2.22;;
16246;SDS011;8231;50.866;7.944;2022-09-27T15:35:47;5.40;;;3.55;;
16246;SDS011;8231;50.866;7.944;2022-09-27T15:38:22;3.33;;;2.22;;
16246;SDS011;8231;50.866;7.944;2022-09-27T15:40:58;2.28;;;1.83;;
16246;SDS011;8231;50.866;7.944;2022-09-27T15:43:32;2.40;;;1.95;;
16246;SDS011;8231;50.866;7.944;2022-09-27T15:46:03;2.25;;;2.03;;
16246;SDS011;8231;50.866;7.944;2022-09-27T15:51:54;2.60;;;2.05;;
16246;SDS011;8231;50.866;7.944;2022-09-27T15:54:23;1.42;;;1.20;;
16246;SDS011;8231;50.866;7.944;2022-09-27T15:56:55;2.03;;;1.90;;
16246;SDS011;8231;50.866;7.944;2022-09-27T15:59:30;1.90;;;1.52;;
16246;SDS011;8231;50.866;7.944;2022-09-27T16:02:01;1.40;;;1.30;;
16246;SDS011;8231;50.866;7.944;2022-09-27T16:04:33;2.58;;;1.70;;
16246;SDS011;8231;50.866;7.944;2022-09-27T16:07:03;3.08;;;1.90;;
16246;SDS011;8231;50.866;7.944;2022-09-27T16:09:34;2.55;;;2.03;;
16246;SDS011;8231;50.866;7.944;2022-09-27T16:12:03;4.90;;;2.20;;
16246;SDS011;8231;50.866;7.944;2022-09-27T16:14:31;2.50;;;2.30;;